N0PFE-1 Weather Reports


Display with metric or nautical units.
time (UTC)temp
F
wind
direction
speed
MPH
gust
MPH
rain 1hr
in
rain 24hr
in
rain mn
in
humidity
%
barometer
mb
20210923015516 68 0.0 0.0 0.00 0.00 0.00 32 1021.7
20210923014518 69 0.0 0.0 0.00 0.00 0.00 31 1021.6
20210923013524 70 0.0 0.0 0.00 0.00 0.00 29 1021.4
20210923012521 71 0.0 0.0 0.00 0.00 0.00 29 1021.3
20210923011523 72 0.0 0.0 0.00 0.00 0.00 28 1021.2
20210923010525 72 0.0 0.0 0.00 0.00 0.00 28 1021.2
20210923005526 73 0.0 0.0 0.00 0.00 0.00 27 1021.2
20210923004528 75 0.0 0.0 0.00 0.00 0.00 25 1021.2
20210923003529 76 0.0 1.0 0.00 0.00 0.00 24 1021.2
20210923002531 77 23 0.0 2.0 0.00 0.00 0.00 23 1021.2
20210923001528 79 16 1.0 4.0 0.00 0.00 0.00 22 1021.2
20210923000529 79 27 2.0 4.0 0.00 0.00 0.00 21 1021.2
20210922235531 80 24 3.0 5.0 0.00 0.00 0.00 21 1021.2
20210922234527 82 17 4.0 6.0 0.00 0.00 0.00 20 1021.4
20210922233516 82 338 5.0 8.0 0.00 0.00 0.00 19 1021.6
20210922232518 82 17 5.0 7.0 0.00 0.00 0.00 19 1021.6
20210922231519 83 354 5.0 6.0 0.00 0.00 0.00 19 1021.6
20210922230521 83 354 4.0 5.0 0.00 0.00 0.00 19 1021.7
20210922225523 84 15 5.0 7.0 0.00 0.00 0.00 18 1021.9
20210922224525 84 3 5.0 7.0 0.00 0.00 0.00 18 1021.9
20210922223530 84 315 6.0 9.0 0.00 0.00 0.00 18 1022.1
20210922222528 85 1 7.0 10.0 0.00 0.00 0.00 18 1022.1
20210922221530 85 21 6.0 9.0 0.00 0.00 0.00 18 1022.1
20210922220532 86 354 5.0 6.0 0.00 0.00 0.00 18 1022.2
20210922215532 86 342 6.0 8.0 0.00 0.00 0.00 17 1022.3
20210922214517 86 0 5.0 7.0 0.00 0.00 0.00 17 1022.6
20210922213518 87 321 5.0 6.0 0.00 0.00 0.00 17 1022.9
20210922212520 87 14 5.0 8.0 0.00 0.00 0.00 17 1022.9
20210922211522 87 13 4.0 6.0 0.00 0.00 0.00 18 1023.0
20210922210517 87 35 6.0 9.0 0.00 0.00 0.00 17 1023.3
20210922205525 87 359 7.0 12.0 0.00 0.00 0.00 18 1023.5
20210922204527 87 320 10.0 15.0 0.00 0.00 0.00 17 1023.6
20210922203528 86 20 6.0 8.0 0.00 0.00 0.00 17 1023.9
20210922202529 87 327 7.0 11.0 0.00 0.00 0.00 17 1024.1
20210922201532 87 8 6.0 10.0 0.00 0.00 0.00 18 1024.2
20210922200533 87 3 7.0 15.0 0.00 0.00 0.00 18 1024.5
20210922195517 86 349 7.0 9.0 0.00 0.00 0.00 18 1024.8
20210922194518 86 340 8.0 10.0 0.00 0.00 0.00 18 1025.0
20210922193520 86 336 9.0 11.0 0.00 0.00 0.00 18 1025.3
20210922192521 86 315 7.0 9.0 0.00 0.00 0.00 18 1025.4
20210922191524 86 69 5.0 8.0 0.00 0.00 0.00 19 1025.6
20210922190529 85 7 9.0 13.0 0.00 0.00 0.00 18 1025.8
20210922185525 86 349 6.0 9.0 0.00 0.00 0.00 18 1026.0
20210922184520 86 358 6.0 10.0 0.00 0.00 0.00 18 1026.1
20210922183530 85 28 5.0 7.0 0.00 0.00 0.00 20 1026.3
20210922182531 84 306 9.0 12.0 0.00 0.00 0.00 18 1026.5
20210922181537 85 21 7.0 10.0 0.00 0.00 0.00 19 1026.6
20210922180520 85 51 6.0 10.0 0.00 0.00 0.00 19 1026.7
20210922175518 85 50 5.0 9.0 0.00 0.00 0.00 20 1026.9
20210922174523 84 15 6.0 8.0 0.00 0.00 0.00 20 1027.1
20210922173525 84 36 6.0 11.0 0.00 0.00 0.00 21 1027.4
20210922172527 83 353 7.0 12.0 0.00 0.00 0.00 21 1027.5
20210922171525 82 39 7.0 10.0 0.00 0.00 0.00 21 1027.6
20210922170526 82 359 9.0 14.0 0.00 0.00 0.00 22 1027.6
20210922165531 82 20 8.0 11.0 0.00 0.00 0.00 22 1027.9
20210922164524 81 9 8.0 11.0 0.00 0.00 0.00 22 1028.3
20210922163520 81 32 9.0 13.0 0.00 0.00 0.00 23 1028.4
20210922162533 80 14 9.0 13.0 0.00 0.00 0.00 23 1028.5
20210922161517 81 72 6.0 10.0 0.00 0.00 0.00 23 1028.7
20210922160518 80 31 7.0 10.0 0.00 0.00 0.00 24 1028.8
20210922155520 80 93 8.0 11.0 0.00 0.00 0.00 24 1028.6
20210922154522 78 93 4.0 8.0 0.00 0.00 0.00 26 1028.6
20210922153527 77 53 6.0 7.0 0.00 0.00 0.00 27 1028.6
20210922152529 76 5 5.0 8.0 0.00 0.00 0.00 29 1028.6
20210922151526 76 19 9.0 12.0 0.00 0.00 0.00 29 1028.6
20210922150528 76 29 7.0 11.0 0.00 0.00 0.00 30 1028.6
20210922145530 75 20 8.0 12.0 0.00 0.00 0.00 31 1028.4
20210922144531 74 23 7.0 9.0 0.00 0.00 0.00 33 1028.3
20210922143515 73 0 7.0 9.0 0.00 0.00 0.00 35 1028.4
20210922142517 72 40 7.0 8.0 0.00 0.00 0.00 35 1028.4
20210922141518 71 25 6.0 9.0 0.00 0.00 0.00 38 1028.4
20210922140520 69 14 5.0 7.0 0.00 0.00 0.00 39 1028.4
20210922135525 68 30 4.0 6.0 0.00 0.00 0.00 40 1028.4
20210922134523 67 337 3.0 5.0 0.00 0.00 0.00 41 1028.4
20210922133525 66 314 3.0 4.0 0.00 0.00 0.00 43 1028.4
20210922132527 65 328 1.0 2.0 0.00 0.00 0.00 44 1028.4
20210922131528 64 0.0 0.0 0.00 0.00 0.00 46 1028.4
20210922130530 63 0.0 0.0 0.00 0.00 0.00 47 1028.3
20210922125532 63 315 0.0 1.0 0.00 0.00 0.00 46 1028.3
20210922124515 62 4 1.0 3.0 0.00 0.00 0.00 47 1028.1
20210922123521 60 23 0.0 2.0 0.00 0.00 0.00 50 1028.1
20210922122519 60 23 0.0 1.0 0.00 0.00 0.00 50 1028.0
20210922121520 61 0 0.0 2.0 0.00 0.00 0.00 49 1027.9
20210922120522 61 0.0 0.0 0.00 0.00 0.00 48 1027.9
20210922115518 62 23 0.0 1.0 0.00 0.00 0.00 47 1027.7
20210922114525 62 23 0.0 3.0 0.00 0.00 0.00 47 1027.7
20210922113526 62 0.0 1.0 0.00 0.00 0.00 46 1027.5
20210922112532 63 10 1.0 3.0 0.00 0.00 0.00 45 1027.4
20210922111530 64 8 3.0 6.0 0.00 0.00 0.00 44 1027.4
20210922110532 64 28 1.0 5.0 0.00 0.00 0.00 43 1027.4
20210922105515 64 20 2.0 4.0 0.00 0.00 0.00 43 1027.2
20210922104517 65 33 4.0 7.0 0.00 0.00 0.00 42 1027.2
20210922103518 65 25 5.0 7.0 0.00 0.00 0.00 42 1027.4
20210922102520 65 24 3.0 4.0 0.00 0.00 0.00 42 1027.3
20210922101522 65 26 3.0 4.0 0.00 0.00 0.00 42 1027.2
20210922100523 66 32 3.0 5.0 0.00 0.00 0.00 41 1027.1
20210922095525 66 9 3.0 5.0 0.00 0.00 0.00 40 1027.0
20210922094521 66 31 4.0 7.0 0.00 0.00 0.00 40 1027.0
20210922093516 67 26 3.0 6.0 0.00 0.00 0.00 39 1026.8
20210922092530 67 24 3.0 5.0 0.00 0.00 0.00 39 1026.7
20210922091532 68 21 3.0 5.0 0.00 0.00 0.00 38 1026.7
20210922090515 68 18 4.0 6.0 0.00 0.00 0.00 37 1026.6
20210922085517 68 43 4.0 6.0 0.00 0.00 0.00 37 1026.5
20210922084518 69 25 4.0 6.0 0.00 0.00 0.00 37 1026.4
20210922083520 69 25 5.0 6.0 0.00 0.00 0.00 36 1026.3
20210922082522 70 12 5.0 8.0 0.00 0.00 0.00 36 1026.2
20210922081523 70 5 4.0 6.0 0.00 0.00 0.00 36 1026.2
20210922080529 70 8 5.0 9.0 0.00 0.00 0.00 35 1026.0
20210922075527 70 17 4.0 6.0 0.00 0.00 0.00 35 1025.9
20210922074528 71 35 6.0 8.0 0.00 0.00 0.00 35 1025.8
20210922073524 71 358 4.0 7.0 0.00 0.00 0.00 35 1025.8
20210922072520 71 28 5.0 6.0 0.00 0.00 0.00 35 1025.8
20210922071516 71 2 4.0 6.0 0.00 0.00 0.00 35 1025.9
20210922070517 71 1 4.0 6.0 0.00 0.00 0.00 35 1025.9
20210922065519 71 352 4.0 5.0 0.00 0.00 0.00 35 1025.9
20210922064520 72 340 4.0 5.0 0.00 0.00 0.00 35 1025.9
20210922063522 72 350 3.0 5.0 0.00 0.00 0.00 34 1025.9
20210922062524 73 21 3.0 5.0 0.00 0.00 0.00 34 1025.8
20210922061526 73 1 5.0 7.0 0.00 0.00 0.00 33 1025.7
20210922060527 74 18 5.0 6.0 0.00 0.00 0.00 33 1025.8
20210922055532 74 28 5.0 7.0 0.00 0.00 0.00 33 1025.9
20210922054530 74 13 4.0 5.0 0.00 0.00 0.00 32 1026.1
20210922053531 75 6 4.0 6.0 0.00 0.00 0.00 31 1026.1
20210922052515 75 14 5.0 6.0 0.00 0.00 0.00 31 1026.1
20210922051517 75 21 6.0 9.0 0.00 0.00 0.00 30 1026.0
20210922050518 76 21 6.0 9.0 0.00 0.00 0.00 30 1025.9
20210922045520 76 26 5.0 7.0 0.00 0.00 0.00 30 1025.8
20210922044525 76 25 5.0 7.0 0.00 0.00 0.00 29 1025.8
20210922043527 76 22 6.0 9.0 0.00 0.00 0.00 29 1025.5
20210922042525 77 21 6.0 9.0 0.00 0.00 0.00 29 1025.3
20210922041527 77 12 7.0 10.0 0.00 0.00 0.00 29 1025.2
20210922040529 77 40 7.0 12.0 0.00 0.00 0.00 29 1025.0
20210922035530 78 349 6.0 9.0 0.00 0.00 0.00 29 1024.6
20210922034536 78 5 8.0 13.0 0.00 0.00 0.00 29 1024.5
20210922033516 78 0 6.0 9.0 0.00 0.00 0.00 30 1024.3
20210922032517 78 346 8.0 13.0 0.00 0.00 0.00 30 1024.2
20210922031519 78 1 6.0 8.0 0.00 0.00 0.00 31 1024.1
20210922030524 78 338 6.0 8.0 0.00 0.00 0.00 32 1024.1
20210922025522 78 349 5.0 8.0 0.00 0.00 0.00 34 1024.0
20210922024518 79 356 4.0 6.0 0.00 0.00 0.00 34 1023.9
20210922023525 79 351 5.0 7.0 0.00 0.00 0.00 34 1023.8
20210922022527 80 7 5.0 8.0 0.00 0.00 0.00 34 1023.6
20210922021530 80 360 5.0 7.0 0.00 0.00 0.00 34 1023.5
20210922020531 81 20 5.0 8.0 0.00 0.00 0.00 35 1023.5